createdAt,value
2022-08-25T00:00:29.858Z,71.56
2022-08-25T00:01:28.402Z,71.56
2022-08-25T00:02:26.857Z,71.66
2022-08-25T00:03:26.827Z,71.77
2022-08-25T00:04:26.829Z,71.86
2022-08-25T00:05:26.799Z,71.86
2022-08-25T00:06:26.840Z,71.97
2022-08-25T00:07:26.750Z,71.97
2022-08-25T00:08:26.771Z,72.06
2022-08-25T00:09:26.721Z,72.17
2022-08-25T00:10:26.720Z,72.37
2022-08-25T00:11:26.700Z,72.37
2022-08-25T00:12:26.683Z,72.47
2022-08-25T00:13:26.711Z,72.47
2022-08-25T00:14:26.702Z,72.67
2022-08-25T00:15:26.745Z,72.67
2022-08-25T00:16:26.646Z,72.67
2022-08-25T00:17:26.627Z,72.77
2022-08-25T00:18:26.602Z,72.87
2022-08-25T00:19:29.679Z,72.97
2022-08-25T00:20:29.597Z,72.97
2022-08-25T00:21:26.589Z,73.07
2022-08-25T00:22:26.547Z,73.17
2022-08-25T00:23:26.557Z,73.17
2022-08-25T00:24:26.517Z,73.27
2022-08-25T00:25:26.560Z,73.41
2022-08-25T00:26:26.499Z,73.41
2022-08-25T00:27:26.540Z,73.50
2022-08-25T00:28:26.483Z,73.61
2022-08-25T00:29:26.459Z,73.81
2022-08-25T00:30:26.470Z,73.91
2022-08-25T00:31:38.248Z,74.11
2022-08-25T00:32:27.411Z,74.21
2022-08-25T00:33:26.462Z,74.21
2022-08-25T00:34:26.389Z,74.41
2022-08-25T00:35:26.376Z,74.51
2022-08-25T00:36:26.423Z,74.65
2022-08-25T00:37:26.354Z,74.85
2022-08-25T00:38:26.542Z,74.95
2022-08-25T00:39:29.388Z,75.05
2022-08-25T00:40:29.376Z,75.25
2022-08-25T00:41:26.316Z,75.35
2022-08-25T00:42:26.333Z,75.55
2022-08-25T00:43:26.311Z,75.65
2022-08-25T00:44:26.256Z,75.65
2022-08-25T00:45:26.284Z,75.75
2022-08-25T00:46:26.350Z,75.75
2022-08-25T00:47:26.208Z,75.85
2022-08-25T00:48:26.199Z,75.95
2022-08-25T00:49:26.191Z,75.85
2022-08-25T00:50:26.655Z,75.95
2022-08-25T00:51:26.199Z,76.15
2022-08-25T00:52:26.130Z,76.35
2022-08-25T00:53:26.152Z,76.39
2022-08-25T00:54:26.109Z,76.59
2022-08-25T00:55:26.110Z,76.69
2022-08-25T00:56:26.099Z,76.89
2022-08-25T00:57:34.894Z,76.89
2022-08-25T00:58:27.052Z,77.09
2022-08-25T00:59:29.071Z,77.20
2022-08-25T01:00:29.033Z,77.39
2022-08-25T01:01:26.031Z,77.50
2022-08-25T01:02:26.032Z,77.50
2022-08-25T01:03:32.964Z,77.59
2022-08-25T01:04:26.975Z,77.70
2022-08-25T01:05:26.030Z,77.90
2022-08-25T01:06:25.945Z,77.90
2022-08-25T01:07:25.935Z,78.10
2022-08-25T01:08:25.979Z,78.10
2022-08-25T01:09:25.957Z,78.20
2022-08-25T01:10:25.887Z,78.20
2022-08-25T01:11:25.878Z,78.30
2022-08-25T01:12:25.891Z,78.30
2022-08-25T01:13:25.848Z,78.30
2022-08-25T01:14:26.457Z,78.30
2022-08-25T01:15:25.955Z,78.40
2022-08-25T01:16:25.829Z,78.50
2022-08-25T01:17:25.915Z,78.60
2022-08-25T01:18:25.781Z,78.64
2022-08-25T01:20:39.123Z,78.74
2022-08-25T01:22:07.241Z,78.84
2022-08-25T01:23:49.330Z,79.04
2022-08-25T01:24:55.969Z,79.14
2022-08-25T01:25:49.283Z,79.24
2022-08-25T01:26:49.194Z,79.24
2022-08-25T01:28:16.926Z,79.44
2022-08-25T01:29:04.118Z,79.54
2022-08-25T01:29:49.268Z,79.54
2022-08-25T01:31:24.884Z,79.74
2022-08-25T01:32:03.075Z,79.74
2022-08-25T01:32:49.227Z,79.85
2022-08-25T01:33:51.873Z,79.99
2022-08-25T01:36:27.102Z,80.19
2022-08-25T01:36:59.354Z,80.29
2022-08-25T01:38:25.123Z,80.39
2022-08-25T01:38:59.264Z,80.58
2022-08-25T01:39:59.270Z,80.69
2022-08-25T01:40:59.228Z,80.79
2022-08-25T01:41:59.306Z,80.89
2022-08-25T01:43:13.943Z,81.03
2022-08-25T01:49:05.002Z,81.93
2022-08-25T01:50:51.424Z,82.14
2022-08-25T01:52:12.390Z,82.24
2022-08-25T01:53:04.816Z,82.14
2022-08-25T01:53:52.295Z,82.14
2022-08-25T01:54:51.333Z,82.14
2022-08-25T01:55:51.355Z,82.24
2022-08-25T01:56:51.332Z,82.34
2022-08-25T01:59:37.222Z,82.44
2022-08-25T02:00:22.501Z,82.54
2022-08-25T02:01:01.617Z,82.64
2022-08-25T02:02:01.552Z,82.54
2022-08-25T02:03:01.537Z,82.64
2022-08-25T02:04:01.443Z,82.54
2022-08-25T02:05:01.452Z,82.74
2022-08-25T02:06:01.421Z,82.74
2022-08-25T02:07:01.406Z,82.84
2022-08-25T02:08:01.500Z,83.04
2022-08-25T02:09:01.415Z,82.94
2022-08-25T02:10:03.516Z,83.14
2022-08-25T02:11:01.377Z,83.14
2022-08-25T02:12:01.356Z,83.34
2022-08-25T02:13:01.348Z,83.45
2022-08-25T02:15:11.590Z,83.34
2022-08-25T02:16:12.348Z,83.54
2022-08-25T02:17:11.653Z,83.75
2022-08-25T02:18:11.792Z,84.05
2022-08-25T02:21:32.513Z,84.39
2022-08-25T02:22:31.949Z,84.69
2022-08-25T02:23:33.721Z,84.80
2022-08-25T02:24:31.911Z,84.80
2022-08-25T02:25:31.931Z,85.00
2022-08-25T02:26:36.719Z,85.20
2022-08-25T02:27:31.985Z,85.30
2022-08-25T02:30:03.114Z,85.80
2022-08-25T02:30:42.130Z,85.90
2022-08-25T02:31:42.061Z,86.00
2022-08-25T02:32:42.070Z,86.21
2022-08-25T02:33:42.034Z,86.41
2022-08-25T02:34:42.233Z,86.51
2022-08-25T02:35:42.045Z,86.61
2022-08-25T02:36:41.985Z,86.91
2022-08-25T02:37:41.986Z,86.81
2022-08-25T02:38:42.008Z,86.71
2022-08-25T02:39:41.947Z,86.71
2022-08-25T02:40:41.959Z,86.81
2022-08-25T02:41:41.928Z,86.81
2022-08-25T02:42:42.627Z,87.01
2022-08-25T02:43:41.895Z,87.11
2022-08-25T02:44:41.877Z,86.81
2022-08-25T02:45:41.889Z,86.71
2022-08-25T02:46:41.884Z,86.81
2022-08-25T02:47:42.036Z,86.91
2022-08-25T02:48:44.924Z,86.95
2022-08-25T02:49:44.844Z,86.91
2022-08-25T02:50:41.859Z,87.05
2022-08-25T02:51:41.792Z,87.15
2022-08-25T02:52:41.768Z,87.35
2022-08-25T02:53:41.773Z,87.45
2022-08-25T02:54:41.799Z,88.06
2022-08-25T02:55:41.736Z,88.16
2022-08-25T02:56:41.773Z,88.16
2022-08-25T02:57:41.748Z,88.56
2022-08-25T02:58:41.700Z,88.46
2022-08-25T02:59:41.677Z,88.46
2022-08-25T03:00:41.904Z,88.76
2022-08-25T03:01:41.698Z,88.66
2022-08-25T03:02:41.801Z,88.76
2022-08-25T03:03:42.190Z,89.26
2022-08-25T03:04:41.661Z,89.26
2022-08-25T03:05:41.597Z,89.26
2022-08-25T03:06:41.596Z,89.26
2022-08-25T03:07:41.577Z,89.17
2022-08-25T03:08:44.578Z,89.37
2022-08-25T03:09:44.561Z,89.67
2022-08-25T03:10:41.588Z,89.67
2022-08-25T03:11:41.509Z,90.07
2022-08-25T03:12:41.504Z,89.87
2022-08-25T03:13:41.518Z,90.07
2022-08-25T03:14:41.521Z,90.28
2022-08-25T03:15:41.530Z,90.28
2022-08-25T03:16:41.486Z,90.28
2022-08-25T03:17:41.454Z,90.68
2022-08-25T03:18:41.412Z,90.52
2022-08-25T03:19:41.403Z,90.58
2022-08-25T03:20:41.427Z,90.92
2022-08-25T03:21:41.563Z,91.02
2022-08-25T03:22:41.366Z,91.13
2022-08-25T03:23:41.477Z,91.22
2022-08-25T03:24:41.367Z,91.22
2022-08-25T03:25:41.326Z,91.33
2022-08-25T03:26:41.343Z,91.33
2022-08-25T03:27:41.327Z,91.42
2022-08-25T03:28:44.287Z,91.63
2022-08-25T03:29:44.276Z,91.83
2022-08-25T03:30:41.346Z,91.93
2022-08-25T03:31:41.478Z,92.03
2022-08-25T03:32:41.292Z,92.03
2022-08-25T03:33:41.200Z,92.13
2022-08-25T03:34:41.242Z,92.33
2022-08-25T03:35:41.189Z,92.43
2022-08-25T03:36:41.161Z,92.43
2022-08-25T03:37:41.201Z,92.63
2022-08-25T03:38:41.131Z,92.98
2022-08-25T03:39:41.122Z,92.94
2022-08-25T03:40:41.113Z,92.88
2022-08-25T03:41:41.101Z,92.98
2022-08-25T03:42:44.780Z,93.08
2022-08-25T03:43:41.114Z,93.49
2022-08-25T03:44:41.086Z,93.49
2022-08-25T03:45:41.058Z,93.59
2022-08-25T03:46:41.014Z,93.69
2022-08-25T03:47:41.005Z,93.79
2022-08-25T03:48:44.006Z,93.99
2022-08-25T03:49:44.066Z,93.99
2022-08-25T03:50:41.000Z,94.09
2022-08-25T03:51:40.997Z,94.09
2022-08-25T03:52:42.716Z,94.29
2022-08-25T03:53:40.986Z,94.29
2022-08-25T03:54:41.049Z,94.29
2022-08-25T03:55:40.889Z,94.39
2022-08-25T03:56:40.868Z,94.49
2022-08-25T03:57:40.959Z,94.59
2022-08-25T03:58:40.840Z,94.80
2022-08-25T03:59:40.840Z,94.90
2022-08-25T04:00:40.852Z,94.90
2022-08-25T04:01:40.848Z,94.90
2022-08-25T04:02:40.900Z,95.00
2022-08-25T04:03:40.782Z,95.20
2022-08-25T04:04:40.760Z,95.45
2022-08-25T04:05:40.817Z,95.55
2022-08-25T04:06:40.732Z,95.85
2022-08-25T04:07:40.723Z,96.05
2022-08-25T04:08:43.745Z,96.25
2022-08-25T04:09:43.717Z,96.36
2022-08-25T04:10:40.684Z,96.45
2022-08-25T04:11:40.674Z,96.56
2022-08-25T04:12:40.656Z,96.45
2022-08-25T04:13:40.634Z,96.66
2022-08-25T04:14:40.728Z,96.66
2022-08-25T04:15:40.598Z,96.76
2022-08-25T04:16:40.650Z,96.86
2022-08-25T04:17:40.571Z,96.96
2022-08-25T04:18:40.578Z,97.06
2022-08-25T04:19:40.584Z,97.06
2022-08-25T04:20:45.934Z,97.16
2022-08-25T04:21:41.589Z,97.27
2022-08-25T04:22:40.507Z,97.36
2022-08-25T04:23:40.509Z,97.36
2022-08-25T04:24:40.469Z,97.47
2022-08-25T04:25:40.460Z,97.47
2022-08-25T04:26:40.513Z,97.56
2022-08-25T04:27:40.428Z,97.56
2022-08-25T04:28:43.475Z,97.56
2022-08-25T04:29:43.474Z,97.56
2022-08-25T04:30:40.382Z,97.47
2022-08-25T04:31:40.453Z,97.36
2022-08-25T04:32:40.356Z,97.47
2022-08-25T04:33:40.346Z,97.47
2022-08-25T04:34:40.333Z,97.67
2022-08-25T04:35:40.335Z,97.67
2022-08-25T04:36:40.382Z,97.77
2022-08-25T04:37:41.276Z,97.97
2022-08-25T04:38:40.471Z,97.87
2022-08-25T04:39:40.306Z,97.87
2022-08-25T04:40:40.249Z,97.97
2022-08-25T04:41:40.240Z,97.97
2022-08-25T04:42:41.078Z,98.07
2022-08-25T04:43:40.286Z,98.07
2022-08-25T04:44:47.695Z,98.07
2022-08-25T04:45:40.246Z,98.17
2022-08-25T04:46:40.146Z,98.13
2022-08-25T04:47:40.904Z,98.02
2022-08-25T04:48:43.174Z,98.02
2022-08-25T04:49:43.137Z,98.02
2022-08-25T04:50:40.128Z,97.92
2022-08-25T04:51:40.107Z,97.17
2022-08-25T04:52:40.157Z,96.17
2022-08-25T04:53:40.086Z,94.72
2022-08-25T04:54:40.038Z,93.66
2022-08-25T04:55:40.059Z,91.82
2022-08-25T04:56:40.070Z,90.36
2022-08-25T04:57:41.481Z,89.51
2022-08-25T04:58:40.027Z,88.57
2022-08-25T04:59:40.031Z,87.87
2022-08-25T05:00:40.007Z,86.92
2022-08-25T05:01:39.944Z,85.97
2022-08-25T05:02:40.691Z,85.24
2022-08-25T05:03:39.958Z,84.53
2022-08-25T05:04:39.983Z,84.03
2022-08-25T05:05:39.884Z,83.59
2022-08-25T05:06:39.863Z,83.19
2022-08-25T05:07:40.624Z,82.65
2022-08-25T05:08:42.862Z,82.15
2022-08-25T05:09:42.905Z,81.95
2022-08-25T05:10:39.818Z,81.74
2022-08-25T05:11:39.824Z,81.41
2022-08-25T05:12:41.257Z,81.41
2022-08-25T05:13:39.817Z,81.41
2022-08-25T05:14:39.773Z,81.41
2022-08-25T05:15:39.804Z,80.97
2022-08-25T05:16:39.783Z,80.13
2022-08-25T05:17:40.480Z,79.43
2022-08-25T05:18:39.787Z,79.09
2022-08-25T05:19:39.710Z,78.49
2022-08-25T05:20:39.736Z,77.86
2022-08-25T05:21:39.682Z,78.29
2022-08-25T05:22:40.410Z,78.49
2022-08-25T05:23:39.683Z,77.92
2022-08-25T05:24:39.622Z,77.22
2022-08-25T05:25:39.633Z,77.25
2022-08-25T05:26:39.639Z,77.66
2022-08-25T05:27:40.353Z,77.66
2022-08-25T05:28:42.591Z,77.22
2022-08-25T05:29:42.595Z,76.82
2022-08-25T05:30:39.603Z,76.38
2022-08-25T05:31:43.102Z,76.18
2022-08-25T05:32:41.275Z,76.08
2022-08-25T05:33:39.537Z,75.95
2022-08-25T05:34:39.505Z,74.91
2022-08-25T05:35:39.487Z,75.35
2022-08-25T05:36:39.507Z,75.21
2022-08-25T05:37:40.216Z,75.55
2022-08-25T05:38:39.448Z,75.45
2022-08-25T05:39:39.438Z,74.91
2022-08-25T05:40:39.409Z,74.32
2022-08-25T05:41:39.390Z,75.01
2022-08-25T05:42:40.140Z,75.11
2022-08-25T05:43:39.402Z,74.18
2022-08-25T05:44:39.365Z,73.44
2022-08-25T05:45:39.366Z,73.21
2022-08-25T05:46:39.322Z,73.01
2022-08-25T05:47:39.322Z,72.61
2022-08-25T05:48:42.334Z,72.61
2022-08-25T05:49:42.294Z,72.61
2022-08-25T05:50:39.263Z,73.05
2022-08-25T05:51:39.252Z,73.31
2022-08-25T05:52:39.246Z,73.65
2022-08-25T05:53:39.225Z,74.68
2022-08-25T05:54:39.227Z,74.58
2022-08-25T05:55:39.207Z,75.71
2022-08-25T05:56:39.177Z,75.71
2022-08-25T05:57:39.167Z,76.54
2022-08-25T05:58:39.193Z,78.02
2022-08-25T05:59:39.137Z,79.02
2022-08-25T06:00:39.199Z,79.11
2022-08-25T06:01:39.118Z,79.22
2022-08-25T06:02:39.097Z,79.32
2022-08-25T06:03:39.139Z,79.75
2022-08-25T06:04:41.319Z,81.33
2022-08-25T06:05:39.544Z,82.13
2022-08-25T06:06:39.064Z,83.07
2022-08-25T06:07:39.046Z,84.11
2022-08-25T06:08:42.036Z,84.95
2022-08-25T06:09:42.071Z,85.66
2022-08-25T06:10:39.003Z,85.85
2022-08-25T06:11:38.975Z,86.25
2022-08-25T06:12:38.954Z,86.90
2022-08-25T06:13:38.947Z,87.40
2022-08-25T06:14:38.926Z,87.90
2022-08-25T06:15:38.966Z,88.00
2022-08-25T06:16:39.198Z,88.40
2022-08-25T06:17:38.896Z,88.30
2022-08-25T06:18:38.878Z,88.00
2022-08-25T06:19:39.755Z,87.90
2022-08-25T06:20:38.858Z,88.30
2022-08-25T06:21:38.919Z,88.60
2022-08-25T06:22:38.819Z,88.70
2022-08-25T06:23:38.810Z,88.60
2022-08-25T06:24:38.804Z,88.80
2022-08-25T06:25:38.780Z,89.00
2022-08-25T06:26:38.762Z,88.90
2022-08-25T06:27:39.788Z,88.80
2022-08-25T06:28:41.741Z,89.20
2022-08-25T06:29:41.968Z,89.20
2022-08-25T06:30:38.751Z,89.30
2022-08-25T06:31:38.789Z,88.86
2022-08-25T06:32:38.687Z,88.76
2022-08-25T06:33:38.673Z,88.66
2022-08-25T06:34:38.685Z,88.66
2022-08-25T06:35:38.687Z,88.36
2022-08-25T06:36:38.626Z,88.26
2022-08-25T06:37:38.616Z,88.36
2022-08-25T06:38:38.600Z,88.52
2022-08-25T06:39:38.589Z,88.21
2022-08-25T06:40:38.619Z,87.92
2022-08-25T06:41:38.559Z,87.82
2022-08-25T06:42:38.540Z,87.71
2022-08-25T06:43:38.543Z,87.57
2022-08-25T06:44:38.520Z,87.27
2022-08-25T06:45:38.502Z,87.18
2022-08-25T06:46:38.567Z,86.98
2022-08-25T06:47:38.471Z,86.87
2022-08-25T06:48:41.464Z,86.83
2022-08-25T06:49:41.462Z,86.63
2022-08-25T06:50:38.472Z,86.73
2022-08-25T06:51:38.446Z,86.53
2022-08-25T06:52:38.403Z,86.23
2022-08-25T06:53:38.394Z,86.33
2022-08-25T06:54:38.387Z,86.43
2022-08-25T06:55:38.368Z,86.23
2022-08-25T06:56:38.379Z,86.09
2022-08-25T06:57:38.345Z,85.93
2022-08-25T06:58:38.358Z,85.99
2022-08-25T06:59:38.308Z,85.79
2022-08-25T07:00:38.355Z,85.79
2022-08-25T07:01:38.449Z,85.75
2022-08-25T07:02:38.302Z,85.05
2022-08-25T07:03:38.249Z,84.75
2022-08-25T07:04:38.251Z,84.85
2022-08-25T07:05:43.794Z,84.75
2022-08-25T07:06:39.280Z,84.95
2022-08-25T07:07:43.874Z,85.09
2022-08-25T07:08:42.193Z,85.29
2022-08-25T07:09:41.189Z,85.25
2022-08-25T07:10:38.194Z,85.25
2022-08-25T07:11:38.153Z,85.05
2022-08-25T07:12:38.165Z,85.05
2022-08-25T07:13:38.161Z,84.85
2022-08-25T07:14:38.113Z,84.61
2022-08-25T07:15:38.094Z,84.61
2022-08-25T07:16:38.123Z,84.41
2022-08-25T07:17:38.064Z,84.21
2022-08-25T07:18:38.087Z,84.27
2022-08-25T07:19:38.041Z,83.97
2022-08-25T07:20:38.027Z,83.57
2022-08-25T07:21:38.008Z,83.17
2022-08-25T07:22:37.998Z,83.37
2022-08-25T07:23:38.047Z,83.13
2022-08-25T07:24:37.977Z,82.77
2022-08-25T07:25:37.956Z,83.07
2022-08-25T07:26:38.945Z,83.17
2022-08-25T07:27:37.934Z,83.23
2022-08-25T07:28:40.970Z,82.93
2022-08-25T07:29:42.184Z,82.50
2022-08-25T07:30:37.893Z,82.14
2022-08-25T07:31:38.132Z,82.34
2022-08-25T07:32:37.862Z,82.53
2022-08-25T07:33:37.842Z,82.64
2022-08-25T07:34:38.959Z,82.64
2022-08-25T07:35:37.997Z,82.29
2022-08-25T07:36:37.855Z,81.99
2022-08-25T07:37:48.394Z,81.79
2022-08-25T07:38:38.786Z,81.90
2022-08-25T07:39:37.765Z,81.90
2022-08-25T07:40:42.577Z,81.66
2022-08-25T07:41:38.777Z,81.26
2022-08-25T07:42:37.727Z,81.36
2022-08-25T07:43:37.706Z,81.46
2022-08-25T07:44:37.704Z,81.36
2022-08-25T07:45:37.668Z,81.32
2022-08-25T07:46:38.763Z,81.32
2022-08-25T07:47:37.698Z,80.48
2022-08-25T07:48:40.640Z,79.99
2022-08-25T07:49:40.633Z,79.49
2022-08-25T07:50:37.612Z,79.79
2022-08-25T07:51:37.591Z,79.28
2022-08-25T07:52:38.860Z,79.09
2022-08-25T07:53:37.612Z,79.28
2022-08-25T07:54:38.138Z,79.39
2022-08-25T07:55:37.533Z,79.79
2022-08-25T07:56:37.524Z,79.79
2022-08-25T07:57:37.513Z,79.69
2022-08-25T07:58:37.495Z,79.88
2022-08-25T07:59:40.074Z,79.88
2022-08-25T08:00:37.468Z,79.58
2022-08-25T08:01:38.690Z,79.49
2022-08-25T08:02:37.470Z,79.25
2022-08-25T08:03:50.711Z,79.05
2022-08-25T08:04:38.418Z,79.05
2022-08-25T08:05:37.399Z,78.85
2022-08-25T08:06:37.419Z,78.95
2022-08-25T08:07:41.969Z,78.85
2022-08-25T08:08:41.369Z,78.72
2022-08-25T08:09:40.385Z,78.22
2022-08-25T08:10:53.895Z,77.98
2022-08-25T08:11:40.536Z,77.48
2022-08-25T08:12:38.327Z,77.34
2022-08-25T08:13:41.253Z,76.65
2022-08-25T08:14:37.282Z,76.68
2022-08-25T08:15:38.417Z,76.65
2022-08-25T08:16:37.319Z,76.85
2022-08-25T08:17:37.255Z,76.45
2022-08-25T08:18:37.275Z,76.45
2022-08-25T08:19:37.938Z,76.25
2022-08-25T08:20:42.650Z,76.45
2022-08-25T08:21:38.226Z,76.35
2022-08-25T08:22:37.217Z,76.75
2022-08-25T08:23:37.156Z,76.75
2022-08-25T08:24:44.678Z,76.06
2022-08-25T08:25:38.278Z,76.21
2022-08-25T08:26:57.454Z,75.52
2022-08-25T08:27:38.110Z,75.72
2022-08-25T08:28:40.089Z,75.42
2022-08-25T08:29:40.090Z,75.18
2022-08-25T08:30:37.078Z,75.09
2022-08-25T08:31:37.173Z,75.29
2022-08-25T08:33:05.927Z,74.63
2022-08-25T08:33:40.859Z,75.09
2022-08-25T08:34:37.028Z,74.79
2022-08-25T08:35:37.013Z,74.49
2022-08-25T08:36:37.002Z,74.69
2022-08-25T08:37:37.014Z,74.79
2022-08-25T08:38:36.973Z,74.76
2022-08-25T08:39:37.055Z,74.16
2022-08-25T08:40:37.119Z,73.96
2022-08-25T08:42:07.298Z,74.46
2022-08-25T08:42:37.969Z,73.76
2022-08-25T08:43:36.916Z,73.76
2022-08-25T08:44:36.888Z,73.76
2022-08-25T08:45:40.425Z,73.27
2022-08-25T08:46:37.930Z,73.46
2022-08-25T08:47:36.849Z,73.53
2022-08-25T08:48:39.839Z,73.43
2022-08-25T08:49:39.849Z,73.53
2022-08-25T08:50:36.879Z,72.97
2022-08-25T08:51:36.829Z,73.66
2022-08-25T08:52:36.783Z,73.76
2022-08-25T08:53:36.779Z,73.86
2022-08-25T08:54:36.782Z,73.76
2022-08-25T08:55:36.778Z,73.16
2022-08-25T08:56:36.723Z,73.36
2022-08-25T08:57:36.891Z,73.43
2022-08-25T08:58:36.701Z,73.43
2022-08-25T08:59:36.674Z,72.50
2022-08-25T09:00:36.666Z,72.00
2022-08-25T09:01:36.705Z,71.57
2022-08-25T09:02:39.396Z,71.67
2022-08-25T09:03:39.708Z,71.14
2022-08-25T09:04:36.628Z,70.75
2022-08-25T09:05:41.825Z,70.84
2022-08-25T09:06:37.579Z,70.48
2022-08-25T09:07:36.580Z,70.98
2022-08-25T09:08:39.589Z,71.37
2022-08-25T09:09:40.598Z,71.37
2022-08-25T09:10:36.537Z,70.75
2022-08-25T09:11:36.510Z,70.65
2022-08-25T09:12:36.521Z,70.45
2022-08-25T09:13:36.489Z,70.15
2022-08-25T09:14:36.542Z,70.25
2022-08-25T09:15:41.123Z,70.05
2022-08-25T09:16:37.479Z,70.25
2022-08-25T09:17:36.442Z,70.54
2022-08-25T09:18:40.720Z,69.85
2022-08-25T09:19:36.392Z,69.82
2022-08-25T09:20:37.433Z,70.12
2022-08-25T09:21:36.356Z,69.32
2022-08-25T09:22:36.814Z,69.23
2022-08-25T09:23:36.336Z,68.63
2022-08-25T09:24:36.326Z,68.83
2022-08-25T09:25:53.336Z,69.23
2022-08-25T09:26:37.449Z,68.93
2022-08-25T09:27:36.492Z,68.83
2022-08-25T09:28:39.289Z,69.32
2022-08-25T09:29:39.369Z,69.29
2022-08-25T09:30:36.311Z,68.70
2022-08-25T09:31:36.421Z,68.60
2022-08-25T09:32:36.223Z,68.20
2022-08-25T09:33:36.354Z,68.40
2022-08-25T09:34:36.184Z,68.30
2022-08-25T09:35:36.370Z,68.43
2022-08-25T09:36:37.893Z,69.13
2022-08-25T09:37:36.147Z,69.42
2022-08-25T09:38:36.187Z,69.42
2022-08-25T09:39:36.119Z,69.29
2022-08-25T09:40:36.106Z,68.80
2022-08-25T09:41:36.117Z,68.27
2022-08-25T09:42:36.086Z,68.04
2022-08-25T09:43:36.058Z,67.91
2022-08-25T09:44:36.069Z,66.33
2022-08-25T09:45:36.039Z,65.73
2022-08-25T09:46:36.150Z,65.93
2022-08-25T09:47:36.010Z,65.90
2022-08-25T09:48:40.685Z,64.81
2022-08-25T09:49:39.002Z,64.84
2022-08-25T09:50:35.971Z,65.66
2022-08-25T09:51:37.825Z,65.96
2022-08-25T09:52:35.944Z,66.13
2022-08-25T09:53:36.053Z,66.82
2022-08-25T09:54:43.874Z,65.20
2022-08-25T09:55:36.981Z,64.18
2022-08-25T09:56:35.896Z,63.86
2022-08-25T09:57:35.886Z,63.46
2022-08-25T09:58:35.876Z,63.53
2022-08-25T09:59:36.140Z,62.68
2022-08-25T10:00:35.837Z,63.20
2022-08-25T10:01:35.984Z,63.40
2022-08-25T10:02:35.818Z,63.33
2022-08-25T10:03:36.680Z,63.72
2022-08-25T10:04:35.816Z,63.30
2022-08-25T10:05:35.863Z,62.21
2022-08-25T10:06:35.760Z,62.31
2022-08-25T10:07:35.797Z,61.29
2022-08-25T10:08:39.414Z,60.73
2022-08-25T10:09:38.732Z,61.42
2022-08-25T10:10:35.712Z,62.38
2022-08-25T10:11:35.685Z,62.68
2022-08-25T10:12:35.714Z,62.87
2022-08-25T10:13:35.664Z,63.07
2022-08-25T10:14:35.874Z,61.29
2022-08-25T10:15:35.822Z,60.70
2022-08-25T10:16:36.123Z,58.73
2022-08-25T10:17:35.616Z,59.71
2022-08-25T10:18:35.768Z,60.47
2022-08-25T10:19:35.609Z,60.64
2022-08-25T10:20:35.569Z,60.54
2022-08-25T10:21:35.576Z,60.44
2022-08-25T10:22:35.588Z,60.35
2022-08-25T10:23:35.530Z,61.16
2022-08-25T10:24:35.540Z,61.98
2022-08-25T10:25:35.500Z,62.08
2022-08-25T10:26:35.500Z,62.65
2022-08-25T10:27:35.477Z,62.28
2022-08-25T10:28:38.501Z,63.17
2022-08-25T10:29:38.463Z,63.14
2022-08-25T10:30:35.501Z,62.84
2022-08-25T10:31:35.428Z,62.41
2022-08-25T10:32:35.516Z,62.15
2022-08-25T10:33:35.404Z,62.65
2022-08-25T10:34:35.694Z,62.77
2022-08-25T10:35:35.365Z,63.17
2022-08-25T10:36:35.364Z,62.57
2022-08-25T10:37:35.367Z,63.20
2022-08-25T10:38:36.173Z,63.17
2022-08-25T10:39:36.678Z,62.12
2022-08-25T10:40:35.347Z,62.01
2022-08-25T10:41:35.319Z,61.72
2022-08-25T10:42:35.314Z,61.52
2022-08-25T10:43:35.270Z,60.93
2022-08-25T10:44:35.251Z,62.31
2022-08-25T10:45:43.038Z,62.90
2022-08-25T10:46:35.387Z,62.81
2022-08-25T10:47:35.305Z,62.38
2022-08-25T10:48:38.252Z,61.10
2022-08-25T10:49:38.429Z,61.49
2022-08-25T10:50:35.161Z,62.41
2022-08-25T10:51:35.205Z,63.23
2022-08-25T10:52:35.163Z,63.72
2022-08-25T10:53:35.206Z,64.02
2022-08-25T10:54:35.281Z,63.53
2022-08-25T10:55:35.167Z,63.16
2022-08-25T10:56:37.033Z,64.05
2022-08-25T10:57:35.356Z,64.87
2022-08-25T10:58:35.088Z,66.13
2022-08-25T10:59:35.175Z,66.49
2022-08-25T11:00:35.089Z,66.39
2022-08-25T11:01:42.943Z,66.39
2022-08-25T11:02:36.061Z,66.19
2022-08-25T11:03:35.423Z,65.34
2022-08-25T11:04:36.383Z,64.51
2022-08-25T11:05:35.103Z,63.72
2022-08-25T11:06:34.963Z,64.25
2022-08-25T11:07:34.944Z,64.51
2022-08-25T11:08:37.957Z,64.94
2022-08-25T11:09:38.091Z,65.37
2022-08-25T11:10:34.974Z,65.47
2022-08-25T11:11:36.088Z,65.34
2022-08-25T11:12:34.870Z,64.94
2022-08-25T11:13:34.855Z,65.07
2022-08-25T11:14:34.837Z,65.59
2022-08-25T11:15:34.847Z,65.99
2022-08-25T11:16:34.892Z,65.80
2022-08-25T11:17:34.870Z,65.99
2022-08-25T11:18:34.793Z,65.47
2022-08-25T11:19:34.773Z,64.64
2022-08-25T11:20:34.766Z,64.35
2022-08-25T11:21:35.973Z,63.33
2022-08-25T11:22:34.991Z,63.13
2022-08-25T11:23:34.821Z,63.33
2022-08-25T11:24:36.094Z,62.84
2022-08-25T11:25:34.765Z,62.63
2022-08-25T11:26:37.109Z,63.03
2022-08-25T11:27:34.715Z,63.36
2022-08-25T11:28:37.853Z,63.95
2022-08-25T11:29:39.552Z,64.58
2022-08-25T11:30:41.773Z,64.87
2022-08-25T11:31:56.517Z,65.20
2022-08-25T11:32:34.607Z,65.00
2022-08-25T11:33:34.611Z,65.59
2022-08-25T11:34:34.579Z,65.66
2022-08-25T11:35:34.587Z,64.78
2022-08-25T11:36:34.562Z,64.48
2022-08-25T11:37:34.550Z,64.18
2022-08-25T11:38:34.530Z,63.98
2022-08-25T11:39:34.822Z,64.08
2022-08-25T11:40:34.526Z,64.08
2022-08-25T11:41:34.472Z,64.67
2022-08-25T11:42:34.517Z,64.87
2022-08-25T11:43:35.887Z,64.38
2022-08-25T11:44:34.433Z,64.54
2022-08-25T11:45:34.429Z,64.02
2022-08-25T11:46:34.453Z,64.15
2022-08-25T11:47:34.395Z,64.35
2022-08-25T11:48:37.465Z,64.22
2022-08-25T11:49:37.410Z,63.53
2022-08-25T11:50:34.991Z,63.23
2022-08-25T11:51:36.296Z,63.72
2022-08-25T11:52:35.148Z,63.62
2022-08-25T11:53:34.315Z,63.92
2022-08-25T11:54:34.423Z,64.45
2022-08-25T11:55:34.332Z,63.72
2022-08-25T11:56:34.723Z,62.71
2022-08-25T11:57:34.266Z,61.72
2022-08-25T11:58:34.394Z,62.01
2022-08-25T11:59:34.244Z,61.91
2022-08-25T12:00:34.232Z,62.51
2022-08-25T12:01:34.212Z,62.71
2022-08-25T12:02:34.280Z,62.12
2022-08-25T12:03:34.175Z,62.21
2022-08-25T12:04:35.654Z,62.08
2022-08-25T12:05:35.247Z,61.59
2022-08-25T12:06:34.165Z,62.28
2022-08-25T12:07:34.132Z,62.28
2022-08-25T12:08:37.119Z,62.05
2022-08-25T12:09:37.140Z,61.26
2022-08-25T12:10:34.118Z,61.91
2022-08-25T12:11:34.161Z,62.31
2022-08-25T12:12:34.062Z,62.54
2022-08-25T12:13:34.068Z,62.87
2022-08-25T12:14:34.071Z,62.87
2022-08-25T12:15:34.045Z,62.37
2022-08-25T12:16:34.172Z,62.66
2022-08-25T12:17:34.000Z,62.24
2022-08-25T12:18:33.991Z,62.34
2022-08-25T12:19:33.964Z,61.72
2022-08-25T12:20:34.003Z,62.04
2022-08-25T12:21:33.972Z,62.66
2022-08-25T12:22:33.975Z,62.96
2022-08-25T12:23:33.906Z,62.96
2022-08-25T12:24:33.932Z,62.96
2022-08-25T12:25:34.126Z,62.63
2022-08-25T12:26:33.947Z,62.44
2022-08-25T12:27:35.866Z,61.52
2022-08-25T12:28:36.860Z,61.62
2022-08-25T12:29:36.857Z,61.49
2022-08-25T12:30:38.232Z,61.19
2022-08-25T12:31:33.829Z,61.13
2022-08-25T12:32:33.911Z,61.22
2022-08-25T12:33:33.811Z,61.22
2022-08-25T12:34:33.897Z,61.32
2022-08-25T12:35:33.762Z,61.13
2022-08-25T12:36:33.754Z,61.45
2022-08-25T12:37:33.722Z,61.55
2022-08-25T12:38:34.706Z,61.62
2022-08-25T12:39:33.712Z,61.32
2022-08-25T12:40:33.778Z,61.29
2022-08-25T12:41:33.916Z,60.77
2022-08-25T12:42:33.674Z,60.94
2022-08-25T12:43:37.142Z,59.33
2022-08-25T12:44:33.707Z,58.74
2022-08-25T12:45:33.659Z,58.77
2022-08-25T12:46:33.618Z,58.97
2022-08-25T12:47:33.611Z,58.97
2022-08-25T12:48:36.570Z,59.46
2022-08-25T12:49:36.601Z,58.57
2022-08-25T12:50:33.580Z,58.77
2022-08-25T12:51:33.540Z,58.47
2022-08-25T12:52:33.602Z,59.29
2022-08-25T12:53:37.712Z,59.69
2022-08-25T12:54:47.581Z,58.87
2022-08-25T12:55:33.513Z,58.87
2022-08-25T12:56:35.164Z,58.70
2022-08-25T12:57:34.483Z,59.19
2022-08-25T12:58:56.316Z,59.09
2022-08-25T12:59:34.496Z,59.48
2022-08-25T13:00:33.577Z,58.89
2022-08-25T13:01:35.884Z,58.70
2022-08-25T13:02:33.696Z,58.60
2022-08-25T13:03:33.568Z,58.80
2022-08-25T13:04:33.368Z,58.50
2022-08-25T13:05:33.631Z,58.60
2022-08-25T13:06:33.420Z,58.77
2022-08-25T13:07:33.328Z,58.28